sensor_id;sensor_type;location;lat;lon;timestamp;pressure;altitude;pressure_sealevel;temperature;humidity
62703;BME280;66022;50.448;18.122;2023-06-14T00:02:37;99147.81;;;12.49;75.96
62703;BME280;66022;50.448;18.122;2023-06-14T00:06:45;99146.19;;;12.44;80.61
62703;BME280;66022;50.448;18.122;2023-06-14T00:10:53;99145.39;;;12.41;79.51
62703;BME280;66022;50.448;18.122;2023-06-14T00:15:01;99144.98;;;12.37;77.45
62703;BME280;66022;50.448;18.122;2023-06-14T00:19:09;99144.19;;;12.33;79.23
62703;BME280;66022;50.448;18.122;2023-06-14T00:23:17;99143.41;;;12.31;80.21
62703;BME280;66022;50.448;18.122;2023-06-14T00:27:25;99143.03;;;12.27;83.83
62703;BME280;66022;50.448;18.122;2023-06-14T00:31:33;99141.46;;;12.24;77.76
62703;BME280;66022;50.448;18.122;2023-06-14T00:35:41;99140.46;;;12.20;78.80
62703;BME280;66022;50.448;18.122;2023-06-14T00:39:49;99140.02;;;12.18;79.39
62703;BME280;66022;50.448;18.122;2023-06-14T00:43:57;99139.65;;;12.16;80.14
62703;BME280;66022;50.448;18.122;2023-06-14T00:48:05;99138.48;;;12.13;80.05
62703;BME280;66022;50.448;18.122;2023-06-14T00:52:13;99137.06;;;12.13;82.68
62703;BME280;66022;50.448;18.122;2023-06-14T00:56:21;99135.03;;;12.10;87.30
62703;BME280;66022;50.448;18.122;2023-06-14T01:00:29;99133.75;;;12.10;78.70
62703;BME280;66022;50.448;18.122;2023-06-14T01:04:37;99132.45;;;12.09;79.37
62703;BME280;66022;50.448;18.122;2023-06-14T01:08:49;99131.73;;;12.08;79.87
62703;BME280;66022;50.448;18.122;2023-06-14T01:12:57;99129.58;;;12.06;80.11
62703;BME280;66022;50.448;18.122;2023-06-14T01:17:01;99128.80;;;12.04;82.16
62703;BME280;66022;50.448;18.122;2023-06-14T01:21:19;99128.08;;;12.04;79.66
62703;BME280;66022;50.448;18.122;2023-06-14T01:25:17;99126.89;;;12.01;79.70
62703;BME280;66022;50.448;18.122;2023-06-14T01:29:25;99126.09;;;12.00;80.05
62703;BME280;66022;50.448;18.122;2023-06-14T01:33:33;99125.62;;;11.98;80.53
62703;BME280;66022;50.448;18.122;2023-06-14T01:37:41;99125.21;;;11.96;82.61
62703;BME280;66022;50.448;18.122;2023-06-14T01:41:49;99125.25;;;11.94;80.54
62703;BME280;66022;50.448;18.122;2023-06-14T01:45:57;99127.09;;;11.91;89.27
62703;BME280;66022;50.448;18.122;2023-06-14T01:50:05;99126.92;;;11.91;82.76
62703;BME280;66022;50.448;18.122;2023-06-14T01:54:13;99127.17;;;11.92;83.15
62703;BME280;66022;50.448;18.122;2023-06-14T01:58:21;99126.87;;;11.93;85.89
62703;BME280;66022;50.448;18.122;2023-06-14T02:02:29;99126.72;;;11.95;82.64
62703;BME280;66022;50.448;18.122;2023-06-14T02:06:37;99125.73;;;11.97;87.92
62703;BME280;66022;50.448;18.122;2023-06-14T02:10:45;99124.80;;;12.01;83.00
62703;BME280;66022;50.448;18.122;2023-06-14T02:14:53;99124.38;;;12.04;81.11
62703;BME280;66022;50.448;18.122;2023-06-14T02:19:00;99123.66;;;12.08;81.99
62703;BME280;66022;50.448;18.122;2023-06-14T02:23:09;99123.21;;;12.12;81.50
62703;BME280;66022;50.448;18.122;2023-06-14T02:27:16;99124.13;;;12.15;84.16
62703;BME280;66022;50.448;18.122;2023-06-14T02:31:24;99126.31;;;12.18;81.19
62703;BME280;66022;50.448;18.122;2023-06-14T02:35:33;99128.14;;;12.21;80.64
62703;BME280;66022;50.448;18.122;2023-06-14T02:39:41;99128.56;;;12.24;81.43
62703;BME280;66022;50.448;18.122;2023-06-14T02:43:49;99127.62;;;12.27;79.92
62703;BME280;66022;50.448;18.122;2023-06-14T02:47:57;99127.59;;;12.28;81.65
62703;BME280;66022;50.448;18.122;2023-06-14T02:52:05;99128.99;;;12.32;79.76
62703;BME280;66022;50.448;18.122;2023-06-14T02:56:12;99131.67;;;12.32;88.51
62703;BME280;66022;50.448;18.122;2023-06-14T03:00:21;99133.04;;;12.34;80.43
62703;BME280;66022;50.448;18.122;2023-06-14T03:04:29;99131.89;;;12.33;79.09
62703;BME280;66022;50.448;18.122;2023-06-14T03:08:37;99130.69;;;12.31;80.55
62703;BME280;66022;50.448;18.122;2023-06-14T03:12:45;99129.44;;;12.30;78.84
62703;BME280;66022;50.448;18.122;2023-06-14T03:16:53;99127.51;;;12.30;83.32
62703;BME280;66022;50.448;18.122;2023-06-14T03:21:03;99126.65;;;12.33;79.14
62703;BME280;66022;50.448;18.122;2023-06-14T03:25:09;99126.42;;;12.35;78.65
62703;BME280;66022;50.448;18.122;2023-06-14T03:29:17;99126.39;;;12.39;79.92
62703;BME280;66022;50.448;18.122;2023-06-14T03:33:25;99126.73;;;12.44;79.10
62703;BME280;66022;50.448;18.122;2023-06-14T03:37:33;99127.25;;;12.49;80.31
62703;BME280;66022;50.448;18.122;2023-06-14T03:41:41;99128.92;;;12.55;78.31
62703;BME280;66022;50.448;18.122;2023-06-14T03:45:49;99130.98;;;12.59;84.48
62703;BME280;66022;50.448;18.122;2023-06-14T03:49:56;99133.28;;;12.69;77.78
62703;BME280;66022;50.448;18.122;2023-06-14T03:54:04;99137.00;;;12.79;77.50
62703;BME280;66022;50.448;18.122;2023-06-14T03:58:13;99139.37;;;12.91;77.09
62703;BME280;66022;50.448;18.122;2023-06-14T04:02:21;99140.36;;;13.11;75.35
62703;BME280;66022;50.448;18.122;2023-06-14T04:06:29;99141.30;;;13.26;81.10
62703;BME280;66022;50.448;18.122;2023-06-14T04:10:37;99142.26;;;13.35;76.55
62703;BME280;66022;50.448;18.122;2023-06-14T04:14:45;99144.21;;;13.40;76.42
62703;BME280;66022;50.448;18.122;2023-06-14T04:18:54;99144.39;;;13.44;76.71
62703;BME280;66022;50.448;18.122;2023-06-14T04:23:18;99144.92;;;13.48;75.97
62703;BME280;66022;50.448;18.122;2023-06-14T04:27:09;99145.08;;;13.51;78.42
62703;BME280;66022;50.448;18.122;2023-06-14T04:31:17;99145.03;;;13.55;75.46
62703;BME280;66022;50.448;18.122;2023-06-14T04:35:25;99145.70;;;13.64;74.52
62703;BME280;66022;50.448;18.122;2023-06-14T04:39:33;99144.12;;;13.93;71.58
62703;BME280;66022;50.448;18.122;2023-06-14T04:43:41;99144.20;;;14.33;69.47
62703;BME280;66022;50.448;18.122;2023-06-14T04:47:49;99142.92;;;15.11;62.59
62703;BME280;66022;50.448;18.122;2023-06-14T04:51:57;99141.53;;;16.41;54.59
62703;BME280;66022;50.448;18.122;2023-06-14T04:56:08;99139.38;;;17.82;51.45
62703;BME280;66022;50.448;18.122;2023-06-14T05:00:13;99140.84;;;19.23;48.94
62703;BME280;66022;50.448;18.122;2023-06-14T05:04:21;99140.86;;;20.66;45.86
62703;BME280;66022;50.448;18.122;2023-06-14T05:08:29;99141.69;;;21.13;52.39
62703;BME280;66022;50.448;18.122;2023-06-14T05:12:37;99143.09;;;21.29;53.99
62703;BME280;66022;50.448;18.122;2023-06-14T05:16:45;99145.68;;;21.10;57.63
62703;BME280;66022;50.448;18.122;2023-06-14T05:20:53;99148.85;;;20.71;59.84
62703;BME280;66022;50.448;18.122;2023-06-14T05:25:01;99151.92;;;20.24;62.22
62703;BME280;66022;50.448;18.122;2023-06-14T05:29:11;99155.10;;;19.81;62.82
62703;BME280;66022;50.448;18.122;2023-06-14T05:33:20;99157.15;;;19.45;63.29
62703;BME280;66022;50.448;18.122;2023-06-14T05:37:25;99158.81;;;19.04;64.86
62703;BME280;66022;50.448;18.122;2023-06-14T05:41:33;99160.91;;;18.68;65.56
62703;BME280;66022;50.448;18.122;2023-06-14T05:45:41;99164.36;;;18.34;67.29
62703;BME280;66022;50.448;18.122;2023-06-14T05:49:49;99165.91;;;18.04;67.68
62703;BME280;66022;50.448;18.122;2023-06-14T05:53:57;99169.29;;;17.77;68.54
62703;BME280;66022;50.448;18.122;2023-06-14T05:58:05;99171.69;;;17.49;70.07
62703;BME280;66022;50.448;18.122;2023-06-14T06:02:13;99174.51;;;17.27;69.15
62703;BME280;66022;50.448;18.122;2023-06-14T06:06:21;99176.59;;;17.04;75.48
62703;BME280;66022;50.448;18.122;2023-06-14T06:10:29;99178.80;;;16.87;69.78
62703;BME280;66022;50.448;18.122;2023-06-14T06:14:37;99182.58;;;16.71;69.41
62703;BME280;66022;50.448;18.122;2023-06-14T06:18:45;99184.99;;;16.53;70.98
62703;BME280;66022;50.448;18.122;2023-06-14T06:22:53;99187.93;;;16.39;71.02
62703;BME280;66022;50.448;18.122;2023-06-14T06:27:01;99189.84;;;16.29;72.74
62703;BME280;66022;50.448;18.122;2023-06-14T06:31:09;99192.66;;;16.25;70.36
62703;BME280;66022;50.448;18.122;2023-06-14T06:35:17;99194.48;;;16.22;70.47
62703;BME280;66022;50.448;18.122;2023-06-14T06:39:25;99195.78;;;16.25;70.31
62703;BME280;66022;50.448;18.122;2023-06-14T06:43:33;99196.59;;;16.30;70.47
62703;BME280;66022;50.448;18.122;2023-06-14T06:47:41;99197.92;;;16.34;70.55
62703;BME280;66022;50.448;18.122;2023-06-14T06:55:57;99198.21;;;16.44;75.37
62703;BME280;66022;50.448;18.122;2023-06-14T07:00:05;99199.16;;;16.51;70.34
62703;BME280;66022;50.448;18.122;2023-06-14T07:04:16;99201.51;;;16.60;69.92
62703;BME280;66022;50.448;18.122;2023-06-14T07:08:21;99205.21;;;16.72;69.85
62703;BME280;66022;50.448;18.122;2023-06-14T07:12:29;99210.00;;;16.77;71.83
62703;BME280;66022;50.448;18.122;2023-06-14T07:16:37;99214.61;;;16.73;74.40
62703;BME280;66022;50.448;18.122;2023-06-14T07:20:45;99219.33;;;16.69;71.01
62703;BME280;66022;50.448;18.122;2023-06-14T07:24:53;99222.82;;;16.66;70.61
62703;BME280;66022;50.448;18.122;2023-06-14T07:29:01;99226.14;;;16.60;71.83
62703;BME280;66022;50.448;18.122;2023-06-14T07:33:09;99228.92;;;16.55;71.73
62703;BME280;66022;50.448;18.122;2023-06-14T07:37:17;99230.38;;;16.49;73.13
62703;BME280;66022;50.448;18.122;2023-06-14T07:41:25;99230.38;;;16.51;72.44
62703;BME280;66022;50.448;18.122;2023-06-14T07:45:33;99231.87;;;16.54;71.33
62703;BME280;66022;50.448;18.122;2023-06-14T07:49:41;99232.96;;;16.56;70.89
62703;BME280;66022;50.448;18.122;2023-06-14T07:53:49;99233.51;;;16.62;70.61
62703;BME280;66022;50.448;18.122;2023-06-14T07:57:57;99233.51;;;16.67;69.79
62703;BME280;66022;50.448;18.122;2023-06-14T08:02:05;99232.90;;;16.82;68.64
62703;BME280;66022;50.448;18.122;2023-06-14T08:06:13;99231.87;;;17.07;68.99
62703;BME280;66022;50.448;18.122;2023-06-14T08:10:21;99229.25;;;17.46;64.89
62703;BME280;66022;50.448;18.122;2023-06-14T08:14:29;99226.83;;;17.80;63.90
62703;BME280;66022;50.448;18.122;2023-06-14T08:18:37;99224.77;;;17.99;64.85
62703;BME280;66022;50.448;18.122;2023-06-14T08:22:45;99222.50;;;18.11;65.16
62703;BME280;66022;50.448;18.122;2023-06-14T08:26:53;99221.13;;;18.18;66.17
62703;BME280;66022;50.448;18.122;2023-06-14T08:31:01;99220.34;;;18.24;64.69
62703;BME280;66022;50.448;18.122;2023-06-14T08:35:09;99220.03;;;18.30;65.30
62703;BME280;66022;50.448;18.122;2023-06-14T08:39:17;99220.93;;;18.34;64.96
62703;BME280;66022;50.448;18.122;2023-06-14T08:43:25;99221.73;;;18.36;65.27
62703;BME280;66022;50.448;18.122;2023-06-14T08:47:33;99222.77;;;18.39;65.00
62703;BME280;66022;50.448;18.122;2023-06-14T08:51:41;99223.54;;;18.46;64.62
62703;BME280;66022;50.448;18.122;2023-06-14T08:55:49;99224.53;;;18.51;65.94
62703;BME280;66022;50.448;18.122;2023-06-14T08:59:57;99226.29;;;18.57;64.08
62703;BME280;66022;50.448;18.122;2023-06-14T09:04:05;99228.58;;;18.60;64.52
62703;BME280;66022;50.448;18.122;2023-06-14T09:08:13;99231.03;;;18.56;64.91
62703;BME280;66022;50.448;18.122;2023-06-14T09:12:21;99233.98;;;18.52;64.93
62703;BME280;66022;50.448;18.122;2023-06-14T09:16:31;99236.84;;;18.41;67.50
62703;BME280;66022;50.448;18.122;2023-06-14T09:20:37;99239.69;;;18.33;65.24
62703;BME280;66022;50.448;18.122;2023-06-14T09:24:45;99242.19;;;18.24;65.72
62703;BME280;66022;50.448;18.122;2023-06-14T09:28:53;99245.28;;;18.13;66.22
62703;BME280;66022;50.448;18.122;2023-06-14T09:33:01;99247.91;;;18.03;66.62
62703;BME280;66022;50.448;18.122;2023-06-14T09:37:09;99250.10;;;17.92;68.28
62703;BME280;66022;50.448;18.122;2023-06-14T09:41:17;99252.34;;;17.83;68.83
62703;BME280;66022;50.448;18.122;2023-06-14T09:45:25;99252.69;;;17.75;71.04
62703;BME280;66022;50.448;18.122;2023-06-14T09:49:33;99252.70;;;17.67;74.10
62703;BME280;66022;50.448;18.122;2023-06-14T09:53:41;99252.35;;;17.61;74.49
62703;BME280;66022;50.448;18.122;2023-06-14T09:57:49;99253.13;;;17.54;77.69
62703;BME280;66022;50.448;18.122;2023-06-14T10:02:00;99254.77;;;17.49;76.22
62703;BME280;66022;50.448;18.122;2023-06-14T10:06:05;99258.08;;;17.39;83.20
62703;BME280;66022;50.448;18.122;2023-06-14T10:10:13;99261.66;;;17.32;76.95
62703;BME280;66022;50.448;18.122;2023-06-14T10:14:21;99265.92;;;17.21;76.88
62703;BME280;66022;50.448;18.122;2023-06-14T10:22:38;99272.25;;;17.06;79.23
62703;BME280;66022;50.448;18.122;2023-06-14T10:35:11;99274.96;;;16.97;78.37
62703;BME280;66022;50.448;18.122;2023-06-14T10:47:26;99274.39;;;16.95;81.56
62703;BME280;66022;50.448;18.122;2023-06-14T10:55:41;99272.96;;;16.93;83.31
62703;BME280;66022;50.448;18.122;2023-06-14T10:59:49;99272.38;;;16.91;80.66
62703;BME280;66022;50.448;18.122;2023-06-14T11:04:00;99272.72;;;16.89;79.67
62703;BME280;66022;50.448;18.122;2023-06-14T11:12:13;99269.67;;;16.91;80.87
62703;BME280;66022;50.448;18.122;2023-06-14T11:16:21;99269.09;;;16.92;89.72
62703;BME280;66022;50.448;18.122;2023-06-14T11:20:30;99267.42;;;16.98;79.37
62703;BME280;66022;50.448;18.122;2023-06-14T11:24:37;99266.30;;;17.05;80.03
62703;BME280;66022;50.448;18.122;2023-06-14T11:28:45;99265.62;;;17.10;80.62
62703;BME280;66022;50.448;18.122;2023-06-14T11:32:53;99264.53;;;17.16;78.84
62703;BME280;66022;50.448;18.122;2023-06-14T11:37:01;99262.73;;;17.20;77.89
62703;BME280;66022;50.448;18.122;2023-06-14T11:41:09;99260.96;;;17.25;74.05
62703;BME280;66022;50.448;18.122;2023-06-14T11:45:18;99259.52;;;17.32;76.13
62703;BME280;66022;50.448;18.122;2023-06-14T11:49:25;99258.65;;;17.39;78.45
62703;BME280;66022;50.448;18.122;2023-06-14T11:53:33;99257.05;;;17.48;75.24
62703;BME280;66022;50.448;18.122;2023-06-14T11:57:41;99255.55;;;17.58;74.69
62703;BME280;66022;50.448;18.122;2023-06-14T12:01:49;99253.42;;;17.77;72.33
62703;BME280;66022;50.448;18.122;2023-06-14T12:10:08;99246.43;;;18.26;68.52
62703;BME280;66022;50.448;18.122;2023-06-14T12:14:13;99243.16;;;18.53;68.88
62703;BME280;66022;50.448;18.122;2023-06-14T12:18:30;99239.64;;;18.79;67.89
62703;BME280;66022;50.448;18.122;2023-06-14T12:22:29;99237.22;;;19.07;66.67
62703;BME280;66022;50.448;18.122;2023-06-14T12:26:38;99234.34;;;19.27;64.90
62703;BME280;66022;50.448;18.122;2023-06-14T12:30:45;99232.81;;;19.40;64.99
62703;BME280;66022;50.448;18.122;2023-06-14T12:34:53;99230.66;;;19.47;63.52
62703;BME280;66022;50.448;18.122;2023-06-14T12:39:01;99228.44;;;19.47;66.52
62703;BME280;66022;50.448;18.122;2023-06-14T12:43:09;99226.40;;;19.49;65.07
62703;BME280;66022;50.448;18.122;2023-06-14T12:47:17;99223.29;;;19.50;66.96
62703;BME280;66022;50.448;18.122;2023-06-14T12:51:25;99219.65;;;19.52;65.05
62703;BME280;66022;50.448;18.122;2023-06-14T12:55:33;99216.00;;;19.59;65.79
62703;BME280;66022;50.448;18.122;2023-06-14T12:59:41;99212.00;;;19.71;65.45
62703;BME280;66022;50.448;18.122;2023-06-14T13:03:49;99206.81;;;19.87;64.43
62703;BME280;66022;50.448;18.122;2023-06-14T13:07:57;99201.98;;;20.02;65.53
62703;BME280;66022;50.448;18.122;2023-06-14T13:12:05;99198.75;;;20.21;64.96
62703;BME280;66022;50.448;18.122;2023-06-14T13:16:13;99196.17;;;20.30;68.66
62703;BME280;66022;50.448;18.122;2023-06-14T13:20:21;99193.45;;;20.38;64.15
62703;BME280;66022;50.448;18.122;2023-06-14T13:24:29;99191.76;;;20.42;63.17
62703;BME280;66022;50.448;18.122;2023-06-14T13:28:37;99190.61;;;20.38;62.57
62703;BME280;66022;50.448;18.122;2023-06-14T13:32:46;99190.80;;;20.35;62.20
62703;BME280;66022;50.448;18.122;2023-06-14T13:36:53;99190.45;;;20.28;63.35
62703;BME280;66022;50.448;18.122;2023-06-14T13:41:01;99189.53;;;20.22;62.08
62703;BME280;66022;50.448;18.122;2023-06-14T13:45:10;99188.20;;;20.14;63.61
62703;BME280;66022;50.448;18.122;2023-06-14T13:49:17;99186.67;;;20.04;63.11
62703;BME280;66022;50.448;18.122;2023-06-14T13:53:25;99185.53;;;19.96;64.22
62703;BME280;66022;50.448;18.122;2023-06-14T13:57:33;99184.81;;;19.88;64.48
62703;BME280;66022;50.448;18.122;2023-06-14T14:01:41;99184.50;;;19.83;63.82
62703;BME280;66022;50.448;18.122;2023-06-14T14:05:49;99183.65;;;19.74;66.03
62703;BME280;66022;50.448;18.122;2023-06-14T14:09:57;99183.31;;;19.70;65.43
62703;BME280;66022;50.448;18.122;2023-06-14T14:14:05;99183.91;;;19.66;64.71
62703;BME280;66022;50.448;18.122;2023-06-14T14:18:13;99184.88;;;19.58;66.49
62703;BME280;66022;50.448;18.122;2023-06-14T14:22:21;99185.72;;;19.54;66.82
62703;BME280;66022;50.448;18.122;2023-06-14T14:26:29;99185.96;;;19.45;69.44
62703;BME280;66022;50.448;18.122;2023-06-14T14:30:37;99186.89;;;19.37;69.75
62703;BME280;66022;50.448;18.122;2023-06-14T14:34:45;99186.19;;;19.27;68.24
62703;BME280;66022;50.448;18.122;2023-06-14T14:38:53;99184.80;;;19.17;67.60
62703;BME280;66022;50.448;18.122;2023-06-14T14:43:01;99184.98;;;19.09;66.35
62703;BME280;66022;50.448;18.122;2023-06-14T14:47:09;99185.27;;;19.01;66.54
62703;BME280;66022;50.448;18.122;2023-06-14T14:51:17;99184.80;;;18.93;66.21
62703;BME280;66022;50.448;18.122;2023-06-14T14:55:25;99185.21;;;18.84;67.46
62703;BME280;66022;50.448;18.122;2023-06-14T14:59:33;99186.94;;;18.77;66.55
62703;BME280;66022;50.448;18.122;2023-06-14T15:03:41;99188.34;;;18.74;68.94
62703;BME280;66022;50.448;18.122;2023-06-14T15:07:49;99189.43;;;18.70;67.31
62703;BME280;66022;50.448;18.122;2023-06-14T15:11:57;99189.18;;;18.66;66.57
62703;BME280;66022;50.448;18.122;2023-06-14T15:16:05;99187.23;;;18.60;69.68
62703;BME280;66022;50.448;18.122;2023-06-14T15:20:13;99187.24;;;18.58;65.62
62703;BME280;66022;50.448;18.122;2023-06-14T15:24:21;99185.74;;;18.55;66.10
62703;BME280;66022;50.448;18.122;2023-06-14T15:28:29;99185.31;;;18.52;68.81
62703;BME280;66022;50.448;18.122;2023-06-14T15:32:37;99183.72;;;18.51;69.25
62703;BME280;66022;50.448;18.122;2023-06-14T15:36:45;99181.67;;;18.49;72.32
62703;BME280;66022;50.448;18.122;2023-06-14T15:40:53;99180.92;;;18.48;71.29
62703;BME280;66022;50.448;18.122;2023-06-14T15:45:01;99180.75;;;18.48;70.63
62703;BME280;66022;50.448;18.122;2023-06-14T15:49:09;99179.88;;;18.47;70.09
62703;BME280;66022;50.448;18.122;2023-06-14T15:53:17;99180.75;;;18.48;69.23
62703;BME280;66022;50.448;18.122;2023-06-14T15:57:25;99181.81;;;18.48;71.08
62703;BME280;66022;50.448;18.122;2023-06-14T16:01:33;99182.83;;;18.48;70.09
62703;BME280;66022;50.448;18.122;2023-06-14T16:05:41;99183.25;;;18.46;72.31
62703;BME280;66022;50.448;18.122;2023-06-14T16:09:49;99182.89;;;18.43;71.83
62703;BME280;66022;50.448;18.122;2023-06-14T16:13:57;99182.00;;;18.41;71.69
62703;BME280;66022;50.448;18.122;2023-06-14T16:18:05;99180.95;;;18.33;72.47
62703;BME280;66022;50.448;18.122;2023-06-14T16:22:13;99181.84;;;18.30;71.61
62703;BME280;66022;50.448;18.122;2023-06-14T16:26:21;99183.06;;;18.19;77.21
62703;BME280;66022;50.448;18.122;2023-06-14T16:30:29;99184.77;;;18.12;72.53
62703;BME280;66022;50.448;18.122;2023-06-14T16:34:37;99186.27;;;18.06;71.71
62703;BME280;66022;50.448;18.122;2023-06-14T16:38:45;99187.46;;;18.00;72.45
62703;BME280;66022;50.448;18.122;2023-06-14T16:42:53;99190.58;;;17.96;73.43
62703;BME280;66022;50.448;18.122;2023-06-14T16:47:01;99194.51;;;17.92;76.09
62703;BME280;66022;50.448;18.122;2023-06-14T16:51:09;99198.53;;;17.90;74.01
62703;BME280;66022;50.448;18.122;2023-06-14T16:55:17;99202.98;;;17.90;73.17
62703;BME280;66022;50.448;18.122;2023-06-14T16:59:25;99206.76;;;17.89;73.62
62703;BME280;66022;50.448;18.122;2023-06-14T17:03:33;99210.27;;;17.89;73.45
62703;BME280;66022;50.448;18.122;2023-06-14T17:07:41;99213.78;;;17.86;75.25
62703;BME280;66022;50.448;18.122;2023-06-14T17:11:52;99217.50;;;17.83;73.38
62703;BME280;66022;50.448;18.122;2023-06-14T17:15:57;99220.31;;;17.76;78.37
62703;BME280;66022;50.448;18.122;2023-06-14T17:20:06;99223.52;;;17.73;73.81
62703;BME280;66022;50.448;18.122;2023-06-14T17:24:13;99225.68;;;17.69;74.65
62703;BME280;66022;50.448;18.122;2023-06-14T17:28:21;99229.61;;;17.62;74.88
62703;BME280;66022;50.448;18.122;2023-06-14T17:32:29;99232.00;;;17.59;74.18
62703;BME280;66022;50.448;18.122;2023-06-14T17:36:37;99234.50;;;17.55;77.69
62703;BME280;66022;50.448;18.122;2023-06-14T17:40:45;99237.46;;;17.52;75.64
62703;BME280;66022;50.448;18.122;2023-06-14T17:44:53;99239.54;;;17.48;75.58
62703;BME280;66022;50.448;18.122;2023-06-14T17:49:01;99241.22;;;17.43;76.72
62703;BME280;66022;50.448;18.122;2023-06-14T17:53:09;99243.06;;;17.38;76.71
62703;BME280;66022;50.448;18.122;2023-06-14T17:57:17;99244.70;;;17.34;77.68
62703;BME280;66022;50.448;18.122;2023-06-14T18:01:25;99245.83;;;17.31;76.42
62703;BME280;66022;50.448;18.122;2023-06-14T18:05:33;99247.44;;;17.26;75.65
62703;BME280;66022;50.448;18.122;2023-06-14T18:09:41;99248.88;;;17.20;76.38
62703;BME280;66022;50.448;18.122;2023-06-14T18:13:49;99251.67;;;17.15;76.50
62703;BME280;66022;50.448;18.122;2023-06-14T18:17:57;99254.46;;;17.07;77.61
62703;BME280;66022;50.448;18.122;2023-06-14T18:22:05;99255.64;;;17.04;76.48
62703;BME280;66022;50.448;18.122;2023-06-14T18:26:13;99257.20;;;16.96;83.43
62703;BME280;66022;50.448;18.122;2023-06-14T18:30:21;99258.47;;;16.93;76.75
62703;BME280;66022;50.448;18.122;2023-06-14T18:34:29;99259.58;;;16.89;76.95
62703;BME280;66022;50.448;18.122;2023-06-14T18:38:37;99260.85;;;16.84;78.48
62703;BME280;66022;50.448;18.122;2023-06-14T18:42:45;99262.95;;;16.81;77.82
62703;BME280;66022;50.448;18.122;2023-06-14T18:46:53;99265.69;;;16.78;81.89
62703;BME280;66022;50.448;18.122;2023-06-14T18:51:04;99268.24;;;16.76;79.10
62703;BME280;66022;50.448;18.122;2023-06-14T18:55:09;99271.19;;;16.73;79.56
62703;BME280;66022;50.448;18.122;2023-06-14T18:59:18;99274.58;;;16.69;80.03
62703;BME280;66022;50.448;18.122;2023-06-14T19:03:28;99276.84;;;16.66;79.95
62703;BME280;66022;50.448;18.122;2023-06-14T19:07:33;99278.91;;;16.62;82.31
62703;BME280;66022;50.448;18.122;2023-06-14T19:11:41;99280.88;;;16.58;80.61
62703;BME280;66022;50.448;18.122;2023-06-14T19:15:49;99282.35;;;16.51;87.72
62703;BME280;66022;50.448;18.122;2023-06-14T19:19:57;99284.88;;;16.46;80.91
62703;BME280;66022;50.448;18.122;2023-06-14T19:24:05;99287.75;;;16.41;81.07
62703;BME280;66022;50.448;18.122;2023-06-14T19:28:13;99289.33;;;16.32;82.54
62703;BME280;66022;50.448;18.122;2023-06-14T19:32:21;99289.72;;;16.28;81.16
62703;BME280;66022;50.448;18.122;2023-06-14T19:36:30;99289.90;;;16.22;87.71
62703;BME280;66022;50.448;18.122;2023-06-14T19:40:37;99289.58;;;16.17;81.15
62703;BME280;66022;50.448;18.122;2023-06-14T19:44:45;99289.15;;;16.11;81.50
62703;BME280;66022;50.448;18.122;2023-06-14T19:48:53;99288.96;;;16.04;82.79
62703;BME280;66022;50.448;18.122;2023-06-14T19:53:01;99288.46;;;15.98;81.68
62703;BME280;66022;50.448;18.122;2023-06-14T19:57:12;99288.84;;;15.91;85.40
62703;BME280;66022;50.448;18.122;2023-06-14T20:01:17;99289.01;;;15.86;82.85
62703;BME280;66022;50.448;18.122;2023-06-14T20:05:25;99289.01;;;15.80;82.20
62703;BME280;66022;50.448;18.122;2023-06-14T20:09:33;99290.55;;;15.73;83.25
62703;BME280;66022;50.448;18.122;2023-06-14T20:13:41;99292.24;;;15.67;82.23
62703;BME280;66022;50.448;18.122;2023-06-14T20:17:49;99293.92;;;15.59;85.37
62703;BME280;66022;50.448;18.122;2023-06-14T20:21:57;99295.65;;;15.54;82.93
62703;BME280;66022;50.448;18.122;2023-06-14T20:26:05;99296.41;;;15.46;92.59
62703;BME280;66022;50.448;18.122;2023-06-14T20:30:13;99298.25;;;15.42;84.21
62703;BME280;66022;50.448;18.122;2023-06-14T20:34:23;99298.67;;;15.39;83.64
62703;BME280;66022;50.448;18.122;2023-06-14T20:38:29;99300.81;;;15.34;84.57
62703;BME280;66022;50.448;18.122;2023-06-14T20:42:37;99301.33;;;15.31;83.91
62703;BME280;66022;50.448;18.122;2023-06-14T20:46:45;99301.67;;;15.27;89.02
62703;BME280;66022;50.448;18.122;2023-06-14T20:50:53;99302.94;;;15.25;84.68
62703;BME280;66022;50.448;18.122;2023-06-14T20:55:01;99304.24;;;15.23;84.10
62703;BME280;66022;50.448;18.122;2023-06-14T20:59:09;99305.06;;;15.19;85.03
62703;BME280;66022;50.448;18.122;2023-06-14T21:03:17;99305.85;;;15.16;84.25
62703;BME280;66022;50.448;18.122;2023-06-14T21:07:25;99306.42;;;15.12;86.55
62703;BME280;66022;50.448;18.122;2023-06-14T21:11:33;99306.59;;;15.08;84.65
62703;BME280;66022;50.448;18.122;2023-06-14T21:15:41;99307.90;;;15.03;88.41
62703;BME280;66022;50.448;18.122;2023-06-14T21:19:49;99308.73;;;14.97;87.04
62703;BME280;66022;50.448;18.122;2023-06-14T21:23:57;99309.49;;;14.91;86.71
62703;BME280;66022;50.448;18.122;2023-06-14T21:28:05;99309.12;;;14.84;88.58
62703;BME280;66022;50.448;18.122;2023-06-14T21:32:13;99308.94;;;14.81;86.97
62703;BME280;66022;50.448;18.122;2023-06-14T21:36:21;99309.46;;;14.76;99.40
62703;BME280;66022;50.448;18.122;2023-06-14T21:40:29;99309.83;;;14.75;88.55
62703;BME280;66022;50.448;18.122;2023-06-14T21:44:38;99312.25;;;14.74;88.34
62703;BME280;66022;50.448;18.122;2023-06-14T21:48:46;99314.31;;;14.73;89.61
62703;BME280;66022;50.448;18.122;2023-06-14T21:52:54;99314.86;;;14.74;88.70
62703;BME280;66022;50.448;18.122;2023-06-14T21:57:02;99315.26;;;14.74;93.50
62703;BME280;66022;50.448;18.122;2023-06-14T22:01:10;99315.83;;;14.77;89.60
62703;BME280;66022;50.448;18.122;2023-06-14T22:05:18;99315.08;;;14.80;88.98
62703;BME280;66022;50.448;18.122;2023-06-14T22:09:26;99314.74;;;14.84;89.31
62703;BME280;66022;50.448;18.122;2023-06-14T22:13:34;99313.65;;;14.87;88.87